createdAt,value
2019-01-13T00:01:10.680Z,100331.79
2019-01-13T00:04:32.549Z,100345.50
2019-01-13T00:12:01.385Z,100343.95
2019-01-13T00:15:20.504Z,100328.22
2019-01-13T00:18:28.998Z,100345.40
2019-01-13T00:21:37.769Z,100348.23
2019-01-13T00:24:46.337Z,100339.85
2019-01-13T00:32:06.997Z,100342.55
2019-01-13T00:35:27.996Z,100336.30
2019-01-13T00:38:47.951Z,100332.47
2019-01-13T00:42:11.865Z,100335.82
2019-01-13T00:45:20.017Z,100334.27
2019-01-13T00:48:28.461Z,100336.86
2019-01-13T00:51:49.378Z,100330.27
2019-01-13T00:55:35.975Z,100327.63
2019-01-13T00:58:54.953Z,100320.20
2019-01-13T01:02:17.602Z,100318.51
2019-01-13T01:05:26.177Z,100325.09
2019-01-13T01:12:59.355Z,100322.61
2019-01-13T01:16:19.297Z,100320.64
2019-01-13T01:23:36.942Z,100316.30
2019-01-13T01:30:51.252Z,100317.85
2019-01-13T01:33:59.729Z,100308.17
2019-01-13T01:44:27.598Z,100306.56
2019-01-13T01:47:36.204Z,100319.19
2019-01-13T01:50:44.700Z,100303.84
2019-01-13T01:53:53.305Z,100300.08
2019-01-13T01:57:01.977Z,100298.48
2019-01-13T02:00:32.403Z,100292.27
2019-01-13T02:03:56.236Z,100298.88
2019-01-13T02:07:16.098Z,100294.72
2019-01-13T02:10:38.698Z,100285.95
2019-01-13T02:14:11.065Z,100292.20
2019-01-13T02:17:31.456Z,100286.75
2019-01-13T02:20:39.958Z,100284.49
2019-01-13T02:23:48.413Z,100289.53
2019-01-13T02:27:08.288Z,100280.63
2019-01-13T02:34:42.110Z,100277.81
2019-01-13T02:41:43.032Z,100283.03
2019-01-13T02:44:51.538Z,100280.81
2019-01-13T02:48:00.005Z,100278.31
2019-01-13T02:55:15.113Z,100266.41
2019-01-13T02:58:45.462Z,100263.13
2019-01-13T03:01:54.053Z,100269.13
2019-01-13T03:05:02.717Z,100266.28
2019-01-13T03:08:31.844Z,100263.56
2019-01-13T03:11:40.333Z,100266.41
2019-01-13T03:30:37.207Z,100269.50
2019-01-13T03:34:08.489Z,100258.00
2019-01-13T03:37:17.020Z,100260.27
2019-01-13T03:40:44.581Z,100255.68
2019-01-13T03:48:27.954Z,100249.34
2019-01-13T03:59:36.265Z,100226.41
2019-01-13T04:03:00.923Z,100225.30
2019-01-13T04:10:02.216Z,100217.92
2019-01-13T04:13:10.695Z,100211.55
2019-01-13T04:16:19.298Z,100212.52
2019-01-13T04:27:38.478Z,100197.33
2019-01-13T04:31:05.125Z,100179.79
2019-01-13T04:53:37.763Z,100158.55
2019-01-13T04:56:57.759Z,100155.83
2019-01-13T05:08:32.961Z,100134.17
2019-01-13T05:12:02.160Z,100128.91
2019-01-13T05:19:05.565Z,100134.09
2019-01-13T05:22:32.959Z,100141.09
2019-01-13T05:25:52.902Z,100123.33
2019-01-13T05:37:22.881Z,100119.55
2019-01-13T06:19:43.493Z,100023.17
2019-01-13T06:23:39.824Z,100013.48
2019-01-13T06:50:26.499Z,99948.81
2019-01-13T07:02:25.198Z,99924.23
2019-01-13T07:05:45.991Z,99919.58
2019-01-13T07:09:14.074Z,99913.18
2019-01-13T07:31:20.948Z,99857.94
2019-01-13T07:34:29.541Z,99842.70
2019-01-13T07:44:59.880Z,99801.05
2019-01-13T07:52:29.990Z,99806.06
2019-01-13T07:55:50.805Z,99785.21
2019-01-13T07:59:27.864Z,99781.73
2019-01-13T08:10:22.966Z,99722.25
2019-01-13T08:13:43.206Z,99722.53
2019-01-13T08:17:02.229Z,99713.39
2019-01-13T08:20:19.485Z,99705.87
2019-01-13T08:23:50.607Z,99689.75
2019-01-13T08:27:14.374Z,99681.06
2019-01-13T08:30:22.943Z,99671.72
2019-01-13T08:33:31.382Z,99660.23
2019-01-13T08:36:39.963Z,99660.31
2019-01-13T08:39:58.752Z,99642.56
2019-01-13T08:43:19.297Z,99638.22
2019-01-13T08:46:38.304Z,99618.53
2019-01-13T08:50:06.718Z,99604.58
2019-01-13T09:27:09.948Z,99551.87
2019-01-13T10:21:38.946Z,99447.83
2019-01-13T10:32:55.115Z,99435.33
2019-01-13T12:33:54.931Z,99236.36
2019-01-13T13:09:27.487Z,99166.94
2019-01-13T13:12:54.499Z,99155.06
2019-01-13T13:16:41.597Z,99147.89
2019-01-13T13:20:02.467Z,99152.16
2019-01-13T13:23:24.856Z,99123.86
2019-01-13T13:26:44.679Z,99118.34
2019-01-13T13:30:16.581Z,99108.80
2019-01-13T13:48:47.322Z,99060.78
2019-01-13T14:14:41.869Z,98991.70
2019-01-13T15:44:49.575Z,98895.82
2019-01-13T16:24:48.053Z,98888.05
2019-01-13T17:47:08.859Z,98859.20
2019-01-13T17:50:28.922Z,98874.51
2019-01-13T18:17:16.928Z,98865.29
2019-01-13T19:02:16.704Z,98902.95
2019-01-13T19:05:51.887Z,98900.16
2019-01-13T19:09:16.075Z,98900.89
2019-01-13T19:45:03.134Z,98889.49
2019-01-13T19:56:39.203Z,98904.72
2019-01-13T19:59:54.649Z,98903.05
2019-01-13T20:03:03.531Z,98904.16
2019-01-13T20:22:26.968Z,98951.13
2019-01-13T20:25:38.224Z,98957.27
2019-01-13T20:28:48.745Z,98949.71
2019-01-13T20:32:16.113Z,98969.48
2019-01-13T20:35:56.188Z,98958.42
2019-01-13T20:39:30.774Z,98967.96
2019-01-13T20:43:16.968Z,98963.47
2019-01-13T20:46:36.692Z,98967.06
2019-01-13T20:53:40.238Z,98991.77
2019-01-13T21:01:10.974Z,99010.40
2019-01-13T21:04:20.587Z,99017.44
2019-01-13T21:07:29.275Z,99031.81
2019-01-13T21:10:38.454Z,99034.13
2019-01-13T21:13:47.320Z,99033.49
2019-01-13T21:16:56.060Z,99052.87
2019-01-13T21:20:05.816Z,99056.56
2019-01-13T21:23:14.993Z,99060.70
2019-01-13T21:26:23.532Z,99069.83
2019-01-13T21:29:31.971Z,99071.66
2019-01-13T21:32:50.843Z,99083.48
2019-01-13T21:35:59.304Z,99089.64
2019-01-13T21:39:10.014Z,99092.90
2019-01-13T21:42:18.467Z,99098.61
2019-01-13T21:45:26.917Z,99124.72
2019-01-13T21:48:35.384Z,99135.13
2019-01-13T21:51:54.332Z,99136.31
2019-01-13T21:55:02.787Z,99138.15
2019-01-13T21:58:11.261Z,99138.81
2019-01-13T22:01:19.696Z,99150.98
2019-01-13T22:04:54.252Z,99163.80
2019-01-13T22:08:14.023Z,99159.09
2019-01-13T22:11:34.043Z,99165.16
2019-01-13T22:14:42.496Z,99182.34
2019-01-13T22:18:01.302Z,99170.22
2019-01-13T22:21:09.754Z,99184.49
2019-01-13T22:24:18.241Z,99186.61
2019-01-13T22:27:26.667Z,99202.17
2019-01-13T22:30:57.637Z,99205.50
2019-01-13T22:34:17.471Z,99211.59
2019-01-13T22:37:36.274Z,99205.10
2019-01-13T22:40:44.724Z,99225.36
2019-01-13T22:43:53.199Z,99219.60
2019-01-13T22:47:01.735Z,99226.88
2019-01-13T23:09:13.960Z,99273.97
2019-01-13T23:12:32.848Z,99294.20
2019-01-13T23:16:18.907Z,99289.50
2019-01-13T23:19:43.085Z,99296.26
2019-01-13T23:23:14.951Z,99314.87
2019-01-13T23:27:00.237Z,99313.82
2019-01-13T23:49:14.254Z,99368.75
